createdAt,value
2022-09-28T00:01:17.172Z,10.21
2022-09-28T00:03:45.055Z,10.20
2022-09-28T00:06:13.649Z,10.21
2022-09-28T00:08:40.852Z,10.21
2022-09-28T00:11:12.267Z,10.21
2022-09-28T00:13:40.360Z,10.21
2022-09-28T00:16:16.390Z,10.22
2022-09-28T00:18:43.883Z,10.21
2022-09-28T00:21:13.289Z,10.21
2022-09-28T00:23:59.809Z,10.20
2022-09-28T00:26:31.658Z,10.20
2022-09-28T00:29:00.385Z,10.19
2022-09-28T00:31:32.843Z,10.17
2022-09-28T00:34:01.338Z,10.15
2022-09-28T00:36:30.736Z,10.16
2022-09-28T00:38:58.373Z,10.16
2022-09-28T00:41:27.672Z,10.16
2022-09-28T00:44:15.096Z,10.16
2022-09-28T00:46:42.669Z,10.17
2022-09-28T00:49:15.858Z,10.17
2022-09-28T00:51:44.735Z,10.16
2022-09-28T00:54:12.889Z,10.16
2022-09-28T00:56:42.489Z,10.16
2022-09-28T00:59:09.515Z,10.17
2022-09-28T01:01:36.833Z,10.18
2022-09-28T01:04:04.954Z,10.18
2022-09-28T01:06:35.887Z,10.16
2022-09-28T01:09:06.834Z,10.17
2022-09-28T01:11:36.788Z,10.18
2022-09-28T01:14:03.811Z,10.19
2022-09-28T01:16:45.707Z,10.16
2022-09-28T01:19:51.343Z,10.17
2022-09-28T01:22:40.120Z,10.17
2022-09-28T01:25:42.626Z,10.16
2022-09-28T01:28:16.369Z,10.17
2022-09-28T01:31:03.276Z,10.17
2022-09-28T01:33:55.434Z,10.17
2022-09-28T01:36:35.086Z,10.14
2022-09-28T01:39:09.999Z,10.15
2022-09-28T01:41:40.474Z,10.15
2022-09-28T01:44:13.983Z,10.16
2022-09-28T01:46:45.344Z,10.16
2022-09-28T01:49:25.759Z,10.16
2022-09-28T01:52:02.673Z,10.11
2022-09-28T01:54:36.299Z,10.05
2022-09-28T01:57:10.834Z,10.06
2022-09-28T01:59:43.341Z,10.06
2022-09-28T02:02:14.989Z,10.07
2022-09-28T02:05:07.860Z,10.07
2022-09-28T02:07:39.955Z,10.06
2022-09-28T02:10:13.269Z,10.06
2022-09-28T02:12:54.698Z,10.04
2022-09-28T02:15:34.677Z,10.03
2022-09-28T02:18:01.421Z,10.03
2022-09-28T02:20:30.712Z,10.04
2022-09-28T02:22:59.618Z,10.03
2022-09-28T02:25:41.420Z,10.01
2022-09-28T02:28:16.450Z,10.02
2022-09-28T02:30:44.555Z,9.99
2022-09-28T02:33:18.295Z,9.97
2022-09-28T02:35:45.218Z,9.97
2022-09-28T02:38:13.078Z,9.98
2022-09-28T02:40:43.895Z,9.97
2022-09-28T02:43:10.416Z,9.95
2022-09-28T02:45:46.694Z,9.97
2022-09-28T02:48:41.333Z,9.98
2022-09-28T02:51:33.006Z,9.99
2022-09-28T02:54:16.641Z,9.99
2022-09-28T02:57:33.324Z,10.00
2022-09-28T03:00:02.730Z,9.99
2022-09-28T03:02:38.891Z,9.96
2022-09-28T03:05:22.799Z,9.96
2022-09-28T03:08:06.977Z,9.91
2022-09-28T03:10:46.402Z,9.90
2022-09-28T03:13:14.801Z,9.88
2022-09-28T03:15:48.546Z,9.85
2022-09-28T03:18:15.688Z,9.84
2022-09-28T03:20:42.230Z,9.85
2022-09-28T03:23:25.306Z,9.84
2022-09-28T03:25:52.252Z,9.86
2022-09-28T03:28:18.879Z,9.87
2022-09-28T03:30:45.419Z,9.87
2022-09-28T03:33:12.023Z,9.86
2022-09-28T03:35:38.607Z,9.85
2022-09-28T03:38:05.144Z,9.80
2022-09-28T03:40:32.794Z,9.78
2022-09-28T03:43:01.165Z,9.76
2022-09-28T03:45:27.810Z,9.76
2022-09-28T03:47:54.453Z,9.76
2022-09-28T03:50:21.018Z,9.73
2022-09-28T03:52:47.530Z,9.72
2022-09-28T03:55:14.271Z,9.72
2022-09-28T03:57:40.897Z,9.73
2022-09-28T04:00:08.192Z,9.74
2022-09-28T04:02:35.110Z,9.74
2022-09-28T04:05:02.386Z,9.73
2022-09-28T04:07:31.093Z,9.74
2022-09-28T04:09:58.206Z,9.74
2022-09-28T04:12:25.021Z,9.73
2022-09-28T04:14:51.753Z,9.72
2022-09-28T04:17:18.303Z,9.70
2022-09-28T04:19:44.839Z,9.67
2022-09-28T04:22:11.822Z,9.67
2022-09-28T04:24:38.409Z,9.64
2022-09-28T04:27:24.019Z,9.65
2022-09-28T04:29:50.570Z,9.63
2022-09-28T04:32:17.284Z,9.61
2022-09-28T04:34:44.476Z,9.60
2022-09-28T04:37:11.138Z,9.59
2022-09-28T04:39:37.702Z,9.57
2022-09-28T04:42:05.596Z,9.49
2022-09-28T04:44:32.201Z,9.45
2022-09-28T04:47:02.879Z,9.43
2022-09-28T04:49:31.579Z,9.42
2022-09-28T04:51:58.172Z,9.42
2022-09-28T04:54:24.738Z,9.43
2022-09-28T04:56:52.562Z,9.39
2022-09-28T04:59:19.062Z,9.41
2022-09-28T05:01:45.719Z,9.42
2022-09-28T05:04:12.229Z,9.42
2022-09-28T05:06:38.805Z,9.39
2022-09-28T05:09:05.558Z,9.35
2022-09-28T05:11:32.092Z,9.37
2022-09-28T05:13:58.745Z,9.39
2022-09-28T05:16:26.291Z,9.40
2022-09-28T05:18:56.693Z,9.39
2022-09-28T05:21:25.436Z,9.39
2022-09-28T05:23:56.039Z,9.39
2022-09-28T05:26:23.245Z,9.32
2022-09-28T05:28:49.927Z,9.24
2022-09-28T05:31:17.307Z,9.26
2022-09-28T05:33:43.845Z,9.28
2022-09-28T05:36:11.112Z,9.26
2022-09-28T05:38:37.753Z,9.25
2022-09-28T05:41:06.710Z,9.25
2022-09-28T05:43:33.711Z,9.24
2022-09-28T05:46:00.686Z,9.20
2022-09-28T05:48:28.355Z,9.20
2022-09-28T05:50:55.261Z,9.21
2022-09-28T05:53:21.889Z,9.23
2022-09-28T05:55:48.720Z,9.22
2022-09-28T05:58:16.074Z,9.24
2022-09-28T06:00:43.118Z,9.24
2022-09-28T06:03:14.438Z,9.18
2022-09-28T06:05:41.448Z,9.16
2022-09-28T06:08:10.673Z,9.16
2022-09-28T06:10:37.343Z,9.17
2022-09-28T06:13:03.874Z,9.13
2022-09-28T06:15:32.496Z,9.15
2022-09-28T06:18:05.154Z,9.15
2022-09-28T06:20:34.665Z,9.18
2022-09-28T06:23:02.498Z,9.22
2022-09-28T06:25:29.415Z,9.23
2022-09-28T06:28:03.997Z,9.23
2022-09-28T06:30:32.697Z,9.26
2022-09-28T06:33:01.400Z,9.34
2022-09-28T06:35:30.875Z,9.36
2022-09-28T06:37:59.283Z,9.39
2022-09-28T06:40:26.889Z,9.45
2022-09-28T06:42:59.463Z,9.50
2022-09-28T06:45:27.782Z,9.54
2022-09-28T06:47:59.880Z,9.59
2022-09-28T06:50:29.179Z,9.62
2022-09-28T06:52:55.703Z,9.63
2022-09-28T06:55:22.385Z,9.65
2022-09-28T06:57:58.437Z,9.66
2022-09-28T07:00:26.425Z,9.68
2022-09-28T07:02:53.089Z,9.72
2022-09-28T07:05:26.830Z,9.78
2022-09-28T07:07:57.025Z,9.85
2022-09-28T07:10:25.404Z,9.87
2022-09-28T07:12:52.290Z,9.90
2022-09-28T07:15:19.294Z,9.89
2022-09-28T07:17:58.770Z,9.96
2022-09-28T07:20:27.412Z,10.04
2022-09-28T07:23:15.447Z,10.08
2022-09-28T07:25:48.029Z,10.12
2022-09-28T07:28:15.571Z,10.14
2022-09-28T07:30:43.332Z,10.17
2022-09-28T07:33:12.584Z,10.23
2022-09-28T07:35:39.414Z,10.28
2022-09-28T07:38:08.056Z,10.32
2022-09-28T07:40:55.011Z,10.32
2022-09-28T07:43:22.405Z,10.37
2022-09-28T07:45:50.570Z,10.39
2022-09-28T07:48:18.722Z,10.48
2022-09-28T07:50:51.788Z,10.58
2022-09-28T07:53:19.313Z,10.64
2022-09-28T07:56:02.255Z,10.68
2022-09-28T07:58:29.357Z,10.75
2022-09-28T08:00:55.881Z,10.77
2022-09-28T08:03:22.616Z,10.82
2022-09-28T08:05:49.831Z,10.85
2022-09-28T08:08:16.445Z,10.84
2022-09-28T08:10:46.957Z,10.82
2022-09-28T08:13:15.365Z,10.86
2022-09-28T08:15:42.669Z,10.92
2022-09-28T08:18:09.973Z,10.99
2022-09-28T08:20:55.410Z,11.01
2022-09-28T08:23:23.679Z,11.02
2022-09-28T08:25:55.198Z,11.04
2022-09-28T08:28:23.241Z,11.12
2022-09-28T08:30:50.683Z,11.17
2022-09-28T08:33:20.354Z,11.20
2022-09-28T08:35:47.290Z,11.26
2022-09-28T08:38:14.359Z,11.26
2022-09-28T08:40:54.906Z,11.24
2022-09-28T08:43:56.876Z,11.25
2022-09-28T08:46:29.558Z,11.28
2022-09-28T08:52:03.451Z,11.36
2022-09-28T08:54:50.450Z,11.40
2022-09-28T08:57:52.681Z,11.44
2022-09-28T09:00:52.393Z,11.42
2022-09-28T09:03:32.413Z,11.45
2022-09-28T09:06:18.450Z,11.49
2022-09-28T09:09:22.017Z,11.54
2022-09-28T09:12:00.800Z,11.62
2022-09-28T09:14:33.027Z,11.69
2022-09-28T09:17:14.093Z,11.77
2022-09-28T09:19:52.786Z,11.86
2022-09-28T09:22:28.184Z,11.87
2022-09-28T09:25:18.257Z,11.87
2022-09-28T09:28:22.246Z,11.93
2022-09-28T09:31:11.673Z,12.11
2022-09-28T09:34:02.269Z,12.23
2022-09-28T09:36:46.463Z,12.40
2022-09-28T09:39:18.966Z,12.55
2022-09-28T09:42:26.728Z,12.79
2022-09-28T09:45:11.660Z,12.94
2022-09-28T09:47:44.425Z,13.00
2022-09-28T09:50:39.376Z,13.02
2022-09-28T09:53:40.801Z,13.06
2022-09-28T09:56:31.296Z,13.01
2022-09-28T09:59:04.549Z,12.98
2022-09-28T10:01:37.798Z,13.00
2022-09-28T10:04:11.971Z,13.09
2022-09-28T10:06:40.980Z,13.21
2022-09-28T10:09:20.168Z,13.25
2022-09-28T10:11:51.963Z,13.27
2022-09-28T10:14:21.504Z,13.35
2022-09-28T10:16:50.041Z,13.47
2022-09-28T10:19:25.866Z,13.54
2022-09-28T10:21:53.287Z,13.62
2022-09-28T10:24:35.740Z,13.82
2022-09-28T10:27:08.694Z,13.97
2022-09-28T10:29:44.475Z,14.05
2022-09-28T10:32:23.878Z,14.06
2022-09-28T10:34:55.091Z,13.94
2022-09-28T10:37:21.687Z,13.84
2022-09-28T10:39:56.078Z,13.89
2022-09-28T10:42:27.000Z,13.91
2022-09-28T10:45:15.462Z,14.01
2022-09-28T10:47:44.387Z,14.08
2022-09-28T10:50:23.894Z,14.16
2022-09-28T10:52:50.459Z,14.26
2022-09-28T10:55:33.601Z,14.29
2022-09-28T10:58:24.181Z,14.33
2022-09-28T11:00:52.773Z,14.28
2022-09-28T11:03:24.159Z,14.29
2022-09-28T11:06:23.210Z,14.27
2022-09-28T11:08:50.498Z,14.23
2022-09-28T11:11:20.086Z,14.15
2022-09-28T11:13:53.525Z,14.09
2022-09-28T11:17:10.189Z,14.09
2022-09-28T11:19:37.068Z,14.21
2022-09-28T11:22:26.159Z,14.34
2022-09-28T11:25:22.252Z,14.39
2022-09-28T11:27:51.783Z,14.46
2022-09-28T11:30:45.520Z,14.48
2022-09-28T11:33:15.068Z,14.55
2022-09-28T11:35:45.326Z,14.59
2022-09-28T11:38:51.434Z,14.66
2022-09-28T11:41:59.865Z,14.76
2022-09-28T11:44:35.261Z,14.78
2022-09-28T11:47:07.533Z,14.70
2022-09-28T11:49:41.878Z,14.70
2022-09-28T11:52:20.483Z,14.72
2022-09-28T11:55:01.221Z,14.84
2022-09-28T11:57:36.802Z,14.90
2022-09-28T12:00:18.258Z,14.96
2022-09-28T12:02:58.789Z,15.06
2022-09-28T12:05:33.919Z,15.09
2022-09-28T12:08:08.406Z,15.06
2022-09-28T12:10:45.363Z,15.12
2022-09-28T12:13:18.695Z,15.15
2022-09-28T12:16:23.489Z,15.20
2022-09-28T12:18:56.404Z,15.29
2022-09-28T12:21:44.654Z,15.34
2022-09-28T12:24:42.314Z,15.35
2022-09-28T12:27:23.130Z,15.29
2022-09-28T12:29:55.501Z,15.23
2022-09-28T12:32:39.260Z,15.17
2022-09-28T12:35:36.737Z,15.13
2022-09-28T12:38:35.719Z,15.18
2022-09-28T12:41:24.002Z,15.30
2022-09-28T12:44:34.377Z,15.46
2022-09-28T12:47:19.797Z,15.64
2022-09-28T12:50:37.631Z,15.57
2022-09-28T12:52:50.791Z,15.53
2022-09-28T12:55:32.234Z,15.55
2022-09-28T12:58:15.182Z,15.63
2022-09-28T13:01:06.484Z,15.63
2022-09-28T13:03:45.824Z,15.54
2022-09-28T13:06:40.819Z,15.45
2022-09-28T13:09:22.647Z,15.39
2022-09-28T13:12:24.442Z,15.32
2022-09-28T13:15:04.504Z,15.27
2022-09-28T13:17:38.150Z,15.23
2022-09-28T13:20:13.917Z,15.19
2022-09-28T13:22:51.418Z,15.17
2022-09-28T13:25:20.911Z,15.17
2022-09-28T13:27:59.256Z,15.12
2022-09-28T13:30:27.014Z,15.11
2022-09-28T13:32:57.590Z,15.14
2022-09-28T13:35:24.823Z,15.20
2022-09-28T13:38:16.463Z,15.23
2022-09-28T13:41:04.975Z,15.24
2022-09-28T13:43:58.371Z,15.26
2022-09-28T13:47:10.397Z,15.19
2022-09-28T13:49:51.080Z,15.11
2022-09-28T13:52:34.064Z,15.06
2022-09-28T13:55:24.972Z,14.96
2022-09-28T13:57:56.860Z,14.81
2022-09-28T14:00:29.490Z,14.74
2022-09-28T14:03:01.555Z,14.63
2022-09-28T14:05:47.355Z,14.49
2022-09-28T14:08:34.891Z,14.46
2022-09-28T14:11:49.830Z,14.49
2022-09-28T14:14:16.443Z,14.62
2022-09-28T14:16:43.882Z,14.69
2022-09-28T14:19:23.578Z,14.73
2022-09-28T14:22:09.978Z,14.75
2022-09-28T14:24:45.622Z,14.76
2022-09-28T14:27:36.805Z,14.80
2022-09-28T14:30:08.503Z,14.91
2022-09-28T14:32:37.086Z,15.00
2022-09-28T14:35:07.199Z,15.06
2022-09-28T14:37:58.976Z,15.12
2022-09-28T14:40:51.068Z,15.17
2022-09-28T14:43:34.295Z,15.23
2022-09-28T14:46:19.354Z,15.27
2022-09-28T14:48:52.719Z,15.31
2022-09-28T14:51:26.232Z,15.29
2022-09-28T14:54:00.304Z,15.34
2022-09-28T14:56:32.568Z,15.38
2022-09-28T14:59:00.447Z,15.45
2022-09-28T15:01:27.766Z,15.50
2022-09-28T15:03:59.096Z,15.46
2022-09-28T15:06:28.941Z,15.45
2022-09-28T15:08:55.658Z,15.44
2022-09-28T15:11:24.965Z,15.37
2022-09-28T15:14:04.569Z,15.37
2022-09-28T15:16:31.393Z,15.38
2022-09-28T15:19:23.780Z,15.36
2022-09-28T15:21:51.222Z,15.34
2022-09-28T15:24:34.744Z,15.29
2022-09-28T15:27:03.414Z,15.26
2022-09-28T15:29:33.466Z,15.24
2022-09-28T15:32:00.260Z,15.21
2022-09-28T15:34:56.798Z,15.19
2022-09-28T15:37:29.425Z,15.15
2022-09-28T15:39:59.922Z,15.11
2022-09-28T15:42:26.762Z,15.04
2022-09-28T15:45:13.763Z,14.93
2022-09-28T15:47:41.759Z,14.93
2022-09-28T15:50:22.821Z,14.93
2022-09-28T15:53:00.834Z,14.94
2022-09-28T15:55:32.060Z,14.91
2022-09-28T15:58:19.390Z,14.87
2022-09-28T16:00:48.252Z,14.84
2022-09-28T16:03:17.765Z,14.78
2022-09-28T16:05:59.618Z,14.77
2022-09-28T16:08:43.582Z,14.71
2022-09-28T16:11:27.884Z,14.68
2022-09-28T16:14:06.725Z,14.65
2022-09-28T16:16:41.199Z,14.55
2022-09-28T16:19:21.024Z,14.47
2022-09-28T16:21:50.377Z,14.42
2022-09-28T16:24:23.571Z,14.38
2022-09-28T16:27:01.042Z,14.33
2022-09-28T16:29:36.361Z,14.28
2022-09-28T16:32:34.045Z,14.18
2022-09-28T16:35:10.861Z,14.07
2022-09-28T16:37:40.884Z,13.98
2022-09-28T16:40:08.912Z,13.88
2022-09-28T16:42:36.750Z,13.78
2022-09-28T16:45:05.372Z,13.72
2022-09-28T16:47:34.184Z,13.64
2022-09-28T16:50:02.520Z,13.58
2022-09-28T16:52:47.466Z,13.50
2022-09-28T16:55:39.625Z,13.44
2022-09-28T16:58:04.757Z,13.38
2022-09-28T17:00:32.488Z,13.32
2022-09-28T17:02:59.707Z,13.25
2022-09-28T17:05:26.429Z,13.19
2022-09-28T17:08:01.274Z,13.15
2022-09-28T17:11:02.422Z,13.10
2022-09-28T17:13:37.446Z,13.04
2022-09-28T17:16:08.992Z,12.98
2022-09-28T17:18:37.883Z,12.92
2022-09-28T17:21:06.758Z,12.89
2022-09-28T17:23:33.442Z,12.83
2022-09-28T17:26:02.090Z,12.79
2022-09-28T17:28:36.577Z,12.72
2022-09-28T17:31:04.274Z,12.71
2022-09-28T17:33:31.083Z,12.66
2022-09-28T17:36:01.424Z,12.59
2022-09-28T17:38:28.574Z,12.52
2022-09-28T17:40:55.161Z,12.47
2022-09-28T17:43:22.389Z,12.45
2022-09-28T17:45:49.586Z,12.39
2022-09-28T17:48:23.092Z,12.37
2022-09-28T17:50:50.675Z,12.33
2022-09-28T17:53:17.670Z,12.31
2022-09-28T17:55:44.255Z,12.29
2022-09-28T17:58:15.707Z,12.24
2022-09-28T18:00:43.245Z,12.18
2022-09-28T18:03:17.267Z,12.15
2022-09-28T18:05:44.809Z,12.14
2022-09-28T18:08:14.229Z,12.11
2022-09-28T18:10:40.792Z,12.09
2022-09-28T18:13:07.751Z,12.05
2022-09-28T18:15:34.471Z,12.00
2022-09-28T18:18:01.254Z,11.97
2022-09-28T18:20:27.957Z,11.98
2022-09-28T18:22:54.513Z,11.95
2022-09-28T18:25:21.248Z,11.92
2022-09-28T18:27:47.806Z,11.91
2022-09-28T18:30:14.389Z,11.89
2022-09-28T18:32:41.319Z,11.89
2022-09-28T18:35:10.244Z,11.87
2022-09-28T18:37:40.182Z,11.85
2022-09-28T18:40:12.920Z,11.84
2022-09-28T18:42:40.796Z,11.81
2022-09-28T18:45:11.206Z,11.78
2022-09-28T18:47:39.034Z,11.73
2022-09-28T18:50:06.437Z,11.73
2022-09-28T18:52:36.551Z,11.74
2022-09-28T18:55:03.564Z,11.69
2022-09-28T18:57:33.514Z,11.67
2022-09-28T19:00:01.806Z,11.66
2022-09-28T19:02:28.641Z,11.67
2022-09-28T19:04:55.273Z,11.67
2022-09-28T19:07:21.821Z,11.67
2022-09-28T19:09:48.475Z,11.67
2022-09-28T19:12:15.074Z,11.66
2022-09-28T19:14:41.583Z,11.65
2022-09-28T19:17:08.374Z,11.63
2022-09-28T19:19:35.818Z,11.61
2022-09-28T19:22:02.419Z,11.58
2022-09-28T19:24:29.050Z,11.56
2022-09-28T19:26:55.792Z,11.53
2022-09-28T19:29:22.763Z,11.50
2022-09-28T19:31:50.435Z,11.48
2022-09-28T19:34:17.792Z,11.45
2022-09-28T19:36:44.763Z,11.43
2022-09-28T19:39:15.006Z,11.40
2022-09-28T19:41:45.633Z,11.36
2022-09-28T19:44:29.723Z,11.33
2022-09-28T19:47:07.117Z,11.31
2022-09-28T19:49:38.600Z,11.30
2022-09-28T19:52:15.847Z,11.25
2022-09-28T19:54:55.865Z,11.22
2022-09-28T19:57:41.591Z,11.19
2022-09-28T20:00:08.937Z,11.14
2022-09-28T20:02:35.472Z,11.14
2022-09-28T20:05:02.311Z,11.11
2022-09-28T20:07:32.788Z,11.08
2022-09-28T20:09:59.633Z,11.04
2022-09-28T20:12:26.470Z,11.01
2022-09-28T20:14:52.988Z,10.99
2022-09-28T20:17:21.693Z,10.96
2022-09-28T20:19:51.665Z,10.91
2022-09-28T20:22:18.698Z,10.89
2022-09-28T20:24:45.324Z,10.87
2022-09-28T20:27:11.876Z,10.83
2022-09-28T20:29:38.362Z,10.78
2022-09-28T20:32:05.073Z,10.76
2022-09-28T20:34:33.403Z,10.71
2022-09-28T20:37:00.170Z,10.69
2022-09-28T20:39:26.641Z,10.68
2022-09-28T20:41:53.583Z,10.66
2022-09-28T20:44:20.247Z,10.61
2022-09-28T20:46:50.282Z,10.56
2022-09-28T20:49:16.805Z,10.53
2022-09-28T20:51:43.596Z,10.51
2022-09-28T20:54:10.072Z,10.47
2022-09-28T20:56:39.344Z,10.45
2022-09-28T20:59:11.490Z,10.39
2022-09-28T21:01:38.368Z,10.36
2022-09-28T21:04:06.997Z,10.32
2022-09-28T21:06:38.319Z,10.30
2022-09-28T21:09:06.803Z,10.28
2022-09-28T21:11:35.651Z,10.25
2022-09-28T21:14:06.049Z,10.19
2022-09-28T21:16:34.728Z,10.15
2022-09-28T21:19:01.348Z,10.12
2022-09-28T21:21:28.152Z,10.08
2022-09-28T21:23:55.880Z,10.06
2022-09-28T21:26:25.155Z,10.03
2022-09-28T21:28:56.793Z,10.00
2022-09-28T21:31:28.734Z,9.96
2022-09-28T21:33:56.336Z,9.93
2022-09-28T21:36:22.968Z,9.89
2022-09-28T21:38:49.466Z,9.86
2022-09-28T21:41:16.642Z,9.83
2022-09-28T21:43:43.156Z,9.80
2022-09-28T21:46:10.365Z,9.77
2022-09-28T21:48:37.123Z,9.72
2022-09-28T21:51:06.272Z,9.67
2022-09-28T21:53:35.321Z,9.65
2022-09-28T21:56:03.496Z,9.63
2022-09-28T21:58:33.610Z,9.60
2022-09-28T22:01:05.163Z,9.59
2022-09-28T22:03:33.747Z,9.56
2022-09-28T22:06:00.278Z,9.53
2022-09-28T22:08:26.976Z,9.51
2022-09-28T22:11:12.873Z,9.51
2022-09-28T22:13:50.797Z,9.48
2022-09-28T22:16:19.279Z,9.46
2022-09-28T22:18:46.293Z,9.45
2022-09-28T22:21:18.987Z,9.44
2022-09-28T22:23:45.711Z,9.44
2022-09-28T22:26:19.444Z,9.42
2022-09-28T22:28:48.126Z,9.40
2022-09-28T22:31:15.966Z,9.39
2022-09-28T22:33:42.669Z,9.38
2022-09-28T22:36:09.638Z,9.38
2022-09-28T22:38:36.689Z,9.37
2022-09-28T22:41:04.064Z,9.39
2022-09-28T22:43:31.124Z,9.41
2022-09-28T22:46:02.088Z,9.41
2022-09-28T22:48:28.923Z,9.43
2022-09-28T22:50:55.450Z,9.43
2022-09-28T22:53:22.028Z,9.42
2022-09-28T22:55:48.508Z,9.43
2022-09-28T22:58:15.050Z,9.43
2022-09-28T23:00:42.450Z,9.42
2022-09-28T23:03:09.396Z,9.43
2022-09-28T23:05:36.381Z,9.42
2022-09-28T23:08:03.270Z,9.40
2022-09-28T23:10:29.824Z,9.40
2022-09-28T23:12:56.884Z,9.38
2022-09-28T23:15:23.427Z,9.34
2022-09-28T23:17:53.895Z,9.31
2022-09-28T23:20:23.891Z,9.31
2022-09-28T23:22:51.097Z,9.30
2022-09-28T23:25:18.553Z,9.30
2022-09-28T23:27:49.868Z,9.29
2022-09-28T23:30:18.596Z,9.28
2022-09-28T23:32:45.679Z,9.28
2022-09-28T23:35:13.662Z,9.27
2022-09-28T23:37:40.416Z,9.28
2022-09-28T23:40:07.929Z,9.26
2022-09-28T23:42:35.523Z,9.26
2022-09-28T23:45:02.034Z,9.27
2022-09-28T23:47:29.288Z,9.27
2022-09-28T23:49:55.810Z,9.26
2022-09-28T23:52:22.582Z,9.25
2022-09-28T23:54:49.080Z,9.24
2022-09-28T23:57:15.817Z,9.23
2022-09-28T23:59:42.331Z,9.22
